Cincinnati Municipal Airport Lunken Field Cincinnati US
ICAO: KLUK
IATA: LUK
Category: Medium
Scheduled Services: No

Elevation: 483 ft
TransAlt. 18000 ft.

Airport Communications:
APP/DEP:121
ATIS:120.25
CLNC DEL:121.9
CTAF:118.7
GND:121.9
DAYTON RDO:122.4
LUNKEN TWR:118.7
UNICOM:122.95

KLUK Zoom In..

Runways:

(A) RW 03L length 3802 ft width 100 ft
---- / hdg 27

(B) RW 03R length 6101 ft width 150 ft
---- / hdg 25

(C) RW 07 length 5128 ft width 100 ft
---- / hdg 66

(D) RW 21L length 6101 ft width 150 ft
ILS 110.90 / hdg 205

(E) RW 21R length 3802 ft width 100 ft
---- / hdg 207

(F) RW 25 length 5128 ft width 100 ft
---- / hdg 246

Location; KLUK
Day. 20 / Time. 19.53 Zulu
* Altimeter: 29.87
* Temperature: 18° c. 64.4°f.
* Wind from: 140° Speed 07 kn.
Dewpoint: 18° c.
Visibility: 10 Statute Miles.
Clouds: Few 5500 ft.
Clouds: Overcast 1000 ft.
Conditions: Thunderstorm.

KLUK 201953Z 14007KT 10SM -TSRA FEW055 OVC100CB 18/18 A2987 RMK AO2 PK WND 24034/1902 WSHFT 1850 LTG DSNT ALQDS RAB03 TSB1857 SLP113 OCNL LTGCCIC ALQDS TS E MOV ENE P0019 T01830178


Wind From 140°
Speed 07 kn.

 
 
jpsmedia.com for Web Design worldairports.se 2018   terms of use